createdAt,value
2023-05-03T00:00:08.875Z,99.99
2023-05-03T00:01:08.610Z,99.99
2023-05-03T00:02:08.733Z,99.99
2023-05-03T00:03:08.707Z,99.99
2023-05-03T00:04:08.569Z,99.99
2023-05-03T00:05:08.609Z,99.99
2023-05-03T00:06:08.576Z,99.99
2023-05-03T00:07:08.532Z,99.99
2023-05-03T00:08:08.515Z,99.99
2023-05-03T00:09:08.522Z,99.99
2023-05-03T00:10:08.487Z,99.99
2023-05-03T00:11:08.472Z,99.99
2023-05-03T00:12:08.459Z,99.99
2023-05-03T00:13:08.445Z,99.99
2023-05-03T00:14:08.430Z,99.99
2023-05-03T00:15:08.421Z,99.99
2023-05-03T00:16:08.404Z,99.99
2023-05-03T00:17:08.444Z,99.99
2023-05-03T00:18:08.723Z,99.99
2023-05-03T00:19:12.632Z,99.99
2023-05-03T00:20:09.406Z,99.99
2023-05-03T00:21:08.333Z,99.99
2023-05-03T00:22:08.329Z,99.99
2023-05-03T00:23:08.305Z,99.99
2023-05-03T00:24:08.298Z,99.99
2023-05-03T00:25:08.289Z,99.99
2023-05-03T00:26:08.269Z,99.99
2023-05-03T00:27:08.250Z,99.99
2023-05-03T00:28:08.240Z,99.99
2023-05-03T00:29:08.227Z,99.99
2023-05-03T00:30:08.218Z,99.99
2023-05-03T00:31:08.245Z,99.99
2023-05-03T00:32:08.189Z,99.99
2023-05-03T00:33:08.280Z,99.99
2023-05-03T00:34:08.185Z,99.99
2023-05-03T00:35:08.156Z,99.99
2023-05-03T00:36:08.144Z,99.99
2023-05-03T00:37:08.133Z,99.99
2023-05-03T00:38:08.111Z,99.99
2023-05-03T00:39:08.099Z,99.99
2023-05-03T00:40:08.085Z,99.99
2023-05-03T00:41:08.128Z,99.99
2023-05-03T00:42:08.208Z,99.99
2023-05-03T00:43:08.052Z,99.99
2023-05-03T00:44:08.036Z,99.99
2023-05-03T00:45:08.067Z,99.99
2023-05-03T00:46:16.067Z,99.99
2023-05-03T00:47:09.130Z,99.99
2023-05-03T00:48:08.245Z,99.99
2023-05-03T00:49:08.321Z,99.99
2023-05-03T00:50:07.988Z,99.99
2023-05-03T00:51:07.934Z,99.99
2023-05-03T00:52:07.929Z,99.99
2023-05-03T00:53:07.910Z,99.99
2023-05-03T00:54:07.900Z,99.99
2023-05-03T00:55:07.882Z,99.99
2023-05-03T00:56:07.876Z,99.99
2023-05-03T00:57:07.859Z,99.99
2023-05-03T00:58:07.846Z,99.99
2023-05-03T00:59:07.831Z,99.99
2023-05-03T01:00:07.821Z,99.99
2023-05-03T01:01:09.269Z,99.99
2023-05-03T01:02:08.050Z,99.99
2023-05-03T01:03:07.911Z,99.99
2023-05-03T01:04:07.839Z,99.99
2023-05-03T01:05:07.752Z,99.99
2023-05-03T01:06:07.833Z,99.99
2023-05-03T01:07:07.841Z,99.99
2023-05-03T01:08:07.708Z,99.99
2023-05-03T01:09:07.851Z,99.99
2023-05-03T01:10:07.685Z,99.99
2023-05-03T01:11:07.670Z,99.99
2023-05-03T01:12:07.822Z,99.99
2023-05-03T01:13:07.657Z,99.99
2023-05-03T01:14:07.640Z,99.99
2023-05-03T01:15:07.617Z,99.99
2023-05-03T01:16:07.674Z,99.99
2023-05-03T01:17:07.588Z,99.99
2023-05-03T01:18:07.729Z,99.99
2023-05-03T01:19:07.636Z,99.99
2023-05-03T01:20:07.947Z,99.99
2023-05-03T01:21:08.388Z,99.99
2023-05-03T01:22:07.732Z,99.99
2023-05-03T01:23:07.513Z,99.99
2023-05-03T01:24:07.875Z,99.99
2023-05-03T01:25:07.831Z,99.99
2023-05-03T01:26:07.678Z,99.99
2023-05-03T01:27:07.755Z,99.99
2023-05-03T01:28:07.870Z,99.99
2023-05-03T01:29:07.775Z,99.99
2023-05-03T01:30:07.416Z,99.99
2023-05-03T01:31:07.631Z,99.99
2023-05-03T01:32:07.538Z,99.99
2023-05-03T01:33:07.569Z,99.99
2023-05-03T01:34:07.373Z,99.99
2023-05-03T01:35:07.348Z,99.99
2023-05-03T01:36:07.340Z,99.99
2023-05-03T01:37:07.324Z,99.99
2023-05-03T01:38:07.328Z,99.99
2023-05-03T01:39:07.296Z,99.99
2023-05-03T01:40:07.292Z,99.99
2023-05-03T01:41:07.276Z,99.99
2023-05-03T01:42:07.278Z,99.99
2023-05-03T01:43:07.238Z,99.99
2023-05-03T01:44:07.242Z,99.99
2023-05-03T01:45:07.231Z,99.99
2023-05-03T01:46:07.362Z,99.99
2023-05-03T01:47:07.194Z,99.99
2023-05-03T01:48:07.239Z,99.99
2023-05-03T01:49:07.167Z,99.99
2023-05-03T01:50:07.150Z,99.99
2023-05-03T01:51:07.139Z,99.99
2023-05-03T01:52:07.126Z,99.99
2023-05-03T01:53:07.114Z,99.99
2023-05-03T01:54:07.117Z,99.99
2023-05-03T01:55:07.083Z,99.99
2023-05-03T01:56:07.068Z,99.99
2023-05-03T01:57:07.054Z,99.99
2023-05-03T01:58:07.045Z,99.99
2023-05-03T01:59:07.030Z,99.99
2023-05-03T02:00:07.034Z,99.99
2023-05-03T02:01:07.081Z,99.99
2023-05-03T02:02:06.992Z,99.99
2023-05-03T02:03:07.072Z,99.99
2023-05-03T02:04:07.069Z,99.99
2023-05-03T02:05:06.959Z,99.99
2023-05-03T02:06:06.995Z,99.99
2023-05-03T02:07:06.929Z,99.99
2023-05-03T02:08:06.913Z,99.99
2023-05-03T02:09:07.262Z,99.99
2023-05-03T02:10:06.933Z,99.99
2023-05-03T02:11:06.893Z,99.99
2023-05-03T02:12:06.857Z,99.99
2023-05-03T02:13:06.855Z,99.99
2023-05-03T02:14:06.836Z,99.99
2023-05-03T02:15:06.814Z,99.99
2023-05-03T02:16:06.803Z,99.99
2023-05-03T02:17:06.829Z,99.99
2023-05-03T02:18:06.911Z,99.99
2023-05-03T02:19:06.762Z,99.99
2023-05-03T02:20:06.744Z,99.99
2023-05-03T02:21:06.737Z,99.99
2023-05-03T02:22:06.713Z,99.99
2023-05-03T02:23:06.706Z,99.99
2023-05-03T02:24:06.719Z,99.99
2023-05-03T02:25:06.682Z,99.99
2023-05-03T02:26:06.696Z,99.99
2023-05-03T02:27:06.655Z,99.99
2023-05-03T02:28:06.646Z,99.99
2023-05-03T02:29:06.625Z,99.99
2023-05-03T02:30:06.891Z,99.99
2023-05-03T02:31:06.777Z,99.99
2023-05-03T02:32:06.588Z,99.99
2023-05-03T02:33:06.628Z,99.99
2023-05-03T02:34:06.911Z,99.99
2023-05-03T02:35:06.551Z,99.99
2023-05-03T02:36:06.554Z,99.99
2023-05-03T02:37:06.551Z,99.99
2023-05-03T02:38:06.533Z,99.99
2023-05-03T02:39:06.489Z,99.99
2023-05-03T02:40:06.527Z,99.99
2023-05-03T02:41:06.473Z,99.99
2023-05-03T02:42:06.471Z,99.99
2023-05-03T02:43:06.434Z,99.99
2023-05-03T02:44:06.431Z,99.99
2023-05-03T02:45:06.517Z,99.99
2023-05-03T02:46:06.424Z,99.99
2023-05-03T02:47:06.390Z,99.99
2023-05-03T02:48:06.395Z,99.99
2023-05-03T02:49:06.382Z,99.99
2023-05-03T02:50:06.578Z,99.99
2023-05-03T02:51:06.350Z,99.99
2023-05-03T02:52:06.319Z,99.99
2023-05-03T02:53:06.310Z,99.99
2023-05-03T02:54:06.289Z,99.99
2023-05-03T02:55:06.277Z,99.99
2023-05-03T02:56:06.268Z,99.99
2023-05-03T02:57:06.252Z,99.99
2023-05-03T02:58:06.276Z,99.99
2023-05-03T02:59:06.216Z,99.99
2023-05-03T03:00:06.487Z,99.99
2023-05-03T03:01:06.277Z,99.99
2023-05-03T03:02:06.291Z,99.99
2023-05-03T03:03:06.227Z,99.99
2023-05-03T03:04:06.298Z,99.99
2023-05-03T03:05:06.139Z,99.99
2023-05-03T03:06:06.138Z,99.99
2023-05-03T03:07:06.179Z,99.99
2023-05-03T03:08:06.099Z,99.99
2023-05-03T03:09:06.084Z,99.99
2023-05-03T03:10:06.080Z,99.99
2023-05-03T03:11:06.055Z,99.99
2023-05-03T03:12:06.045Z,99.99
2023-05-03T03:13:06.028Z,99.99
2023-05-03T03:14:06.037Z,99.99
2023-05-03T03:15:06.004Z,99.99
2023-05-03T03:16:06.025Z,99.99
2023-05-03T03:17:05.980Z,99.99
2023-05-03T03:18:06.053Z,99.99
2023-05-03T03:19:05.949Z,99.99
2023-05-03T03:20:05.937Z,99.99
2023-05-03T03:21:05.923Z,99.99
2023-05-03T03:22:05.923Z,99.99
2023-05-03T03:23:05.892Z,99.99
2023-05-03T03:24:05.976Z,99.99
2023-05-03T03:25:05.865Z,99.99
2023-05-03T03:26:05.859Z,99.99
2023-05-03T03:27:05.889Z,99.99
2023-05-03T03:28:05.924Z,99.99
2023-05-03T03:29:05.812Z,99.99
2023-05-03T03:30:06.197Z,99.99
2023-05-03T03:31:05.797Z,99.99
2023-05-03T03:32:05.833Z,99.99
2023-05-03T03:33:05.915Z,99.99
2023-05-03T03:34:05.750Z,99.99
2023-05-03T03:35:05.884Z,99.99
2023-05-03T03:36:05.726Z,99.99
2023-05-03T03:37:05.910Z,99.99
2023-05-03T03:38:05.696Z,99.99
2023-05-03T03:39:05.928Z,99.99
2023-05-03T03:40:05.707Z,99.99
2023-05-03T03:41:05.905Z,99.99
2023-05-03T03:42:05.656Z,99.99
2023-05-03T03:43:06.024Z,99.99
2023-05-03T03:44:05.609Z,99.99
2023-05-03T03:45:05.600Z,99.99
2023-05-03T03:46:05.612Z,99.99
2023-05-03T03:47:05.649Z,99.99
2023-05-03T03:48:05.593Z,99.99
2023-05-03T03:49:05.547Z,99.99
2023-05-03T03:50:05.849Z,99.99
2023-05-03T03:51:05.524Z,99.99
2023-05-03T03:52:05.509Z,99.99
2023-05-03T03:53:05.492Z,99.99
2023-05-03T03:54:05.489Z,99.99
2023-05-03T03:55:05.527Z,99.99
2023-05-03T03:56:05.451Z,99.99
2023-05-03T03:57:05.431Z,99.99
2023-05-03T03:58:05.446Z,99.99
2023-05-03T03:59:05.418Z,99.99
2023-05-03T04:00:05.599Z,99.99
2023-05-03T04:01:05.384Z,99.99
2023-05-03T04:02:05.410Z,99.99
2023-05-03T04:03:07.405Z,99.99
2023-05-03T04:04:05.449Z,99.99
2023-05-03T04:05:05.418Z,99.99
2023-05-03T04:06:05.376Z,99.99
2023-05-03T04:07:05.308Z,99.99
2023-05-03T04:08:05.309Z,99.99
2023-05-03T04:09:05.279Z,99.99
2023-05-03T04:10:05.648Z,99.99
2023-05-03T04:11:05.248Z,99.99
2023-05-03T04:12:05.238Z,99.99
2023-05-03T04:13:05.220Z,99.99
2023-05-03T04:14:05.209Z,99.99
2023-05-03T04:15:05.196Z,99.99
2023-05-03T04:16:05.185Z,99.99
2023-05-03T04:17:05.230Z,99.99
2023-05-03T04:18:05.239Z,99.99
2023-05-03T04:19:05.148Z,99.99
2023-05-03T04:20:05.299Z,99.99
2023-05-03T04:21:05.116Z,99.99
2023-05-03T04:22:05.100Z,99.99
2023-05-03T04:23:05.105Z,99.99
2023-05-03T04:24:05.076Z,99.99
2023-05-03T04:25:05.065Z,99.99
2023-05-03T04:26:05.521Z,99.99
2023-05-03T04:27:05.045Z,99.99
2023-05-03T04:28:05.021Z,99.99
2023-05-03T04:29:05.015Z,99.99
2023-05-03T04:30:05.295Z,99.99
2023-05-03T04:31:05.030Z,99.99
2023-05-03T04:32:04.968Z,99.99
2023-05-03T04:33:05.029Z,99.99
2023-05-03T04:34:04.979Z,99.99
2023-05-03T04:35:04.931Z,99.99
2023-05-03T04:36:04.912Z,99.99
2023-05-03T04:37:04.906Z,99.99
2023-05-03T04:38:04.884Z,99.99
2023-05-03T04:39:04.869Z,99.99
2023-05-03T04:40:05.140Z,99.99
2023-05-03T04:41:04.843Z,99.99
2023-05-03T04:42:04.829Z,99.99
2023-05-03T04:43:04.816Z,99.99
2023-05-03T04:44:04.907Z,99.99
2023-05-03T04:45:04.793Z,99.99
2023-05-03T04:46:04.802Z,99.99
2023-05-03T04:47:04.762Z,99.99
2023-05-03T04:48:04.796Z,99.99
2023-05-03T04:49:04.747Z,99.99
2023-05-03T04:50:05.094Z,99.99
2023-05-03T04:51:04.736Z,99.99
2023-05-03T04:52:04.702Z,99.99
2023-05-03T04:53:04.688Z,99.99
2023-05-03T04:54:04.672Z,99.99
2023-05-03T04:55:04.692Z,99.99
2023-05-03T04:56:04.660Z,99.99
2023-05-03T04:57:04.628Z,99.99
2023-05-03T04:58:04.625Z,99.99
2023-05-03T04:59:04.623Z,99.99
2023-05-03T05:00:04.884Z,99.99
2023-05-03T05:01:04.599Z,99.99
2023-05-03T05:02:04.637Z,99.99
2023-05-03T05:03:04.649Z,99.99
2023-05-03T05:04:04.635Z,99.99
2023-05-03T05:05:04.536Z,99.99
2023-05-03T05:06:04.604Z,99.99
2023-05-03T05:07:04.501Z,99.99
2023-05-03T05:08:04.492Z,99.99
2023-05-03T05:09:04.470Z,99.99
2023-05-03T05:10:04.717Z,99.99
2023-05-03T05:11:04.448Z,99.99
2023-05-03T05:12:04.587Z,99.99
2023-05-03T05:13:04.413Z,99.99
2023-05-03T05:14:04.401Z,99.99
2023-05-03T05:15:04.410Z,99.99
2023-05-03T05:16:04.382Z,99.99
2023-05-03T05:17:04.413Z,99.99
2023-05-03T05:18:04.413Z,99.99
2023-05-03T05:19:04.347Z,99.99
2023-05-03T05:20:04.730Z,99.99
2023-05-03T05:21:04.322Z,99.99
2023-05-03T05:22:04.337Z,99.99
2023-05-03T05:23:04.277Z,99.99
2023-05-03T05:24:04.471Z,99.99
2023-05-03T05:25:04.251Z,99.99
2023-05-03T05:26:04.238Z,99.99
2023-05-03T05:27:04.221Z,99.99
2023-05-03T05:28:04.218Z,99.99
2023-05-03T05:29:04.204Z,99.99
2023-05-03T05:30:04.512Z,99.99
2023-05-03T05:31:04.178Z,99.99
2023-05-03T05:32:04.338Z,99.99
2023-05-03T05:33:04.184Z,99.99
2023-05-03T05:34:04.137Z,99.99
2023-05-03T05:35:04.128Z,99.99
2023-05-03T05:36:04.114Z,99.99
2023-05-03T05:37:04.093Z,99.99
2023-05-03T05:38:04.108Z,99.99
2023-05-03T05:39:04.066Z,99.99
2023-05-03T05:40:04.370Z,99.99
2023-05-03T05:41:05.236Z,99.99
2023-05-03T05:42:04.028Z,99.99
2023-05-03T05:43:04.012Z,99.99
2023-05-03T05:44:03.999Z,99.99
2023-05-03T05:45:03.983Z,99.99
2023-05-03T05:46:03.970Z,99.99
2023-05-03T05:47:04.430Z,99.99
2023-05-03T05:48:04.000Z,99.99
2023-05-03T05:49:03.931Z,99.99
2023-05-03T05:50:09.561Z,99.99
2023-05-03T05:51:04.944Z,99.99
2023-05-03T05:52:03.891Z,99.99
2023-05-03T05:53:03.880Z,99.99
2023-05-03T05:54:03.895Z,99.99
2023-05-03T05:55:03.888Z,99.99
2023-05-03T05:56:03.861Z,99.99
2023-05-03T05:57:03.835Z,99.99
2023-05-03T05:58:03.854Z,99.99
2023-05-03T05:59:03.799Z,99.99
2023-05-03T06:00:04.005Z,99.99
2023-05-03T06:01:03.806Z,99.99
2023-05-03T06:02:03.794Z,99.99
2023-05-03T06:03:03.787Z,99.99
2023-05-03T06:04:03.739Z,99.99
2023-05-03T06:05:05.546Z,99.99
2023-05-03T06:06:03.752Z,99.99
2023-05-03T06:07:03.696Z,99.99
2023-05-03T06:08:03.685Z,99.99
2023-05-03T06:09:13.204Z,99.99
2023-05-03T06:10:05.024Z,99.99
2023-05-03T06:11:03.647Z,99.99
2023-05-03T06:12:03.632Z,99.99
2023-05-03T06:13:03.617Z,99.99
2023-05-03T06:14:03.931Z,99.99
2023-05-03T06:15:03.623Z,99.99
2023-05-03T06:16:03.590Z,99.99
2023-05-03T06:17:03.584Z,99.99
2023-05-03T06:18:03.595Z,99.99
2023-05-03T06:19:03.539Z,99.99
2023-05-03T06:20:03.838Z,99.99
2023-05-03T06:21:03.506Z,99.99
2023-05-03T06:22:03.496Z,99.99
2023-05-03T06:23:03.502Z,99.99
2023-05-03T06:24:03.480Z,99.99
2023-05-03T06:25:03.457Z,99.99
2023-05-03T06:26:03.472Z,99.99
2023-05-03T06:27:03.448Z,99.99
2023-05-03T06:28:03.440Z,99.99
2023-05-03T06:29:03.403Z,99.99
2023-05-03T06:30:03.657Z,99.99
2023-05-03T06:31:03.381Z,99.99
2023-05-03T06:32:03.359Z,99.99
2023-05-03T06:33:03.373Z,99.99
2023-05-03T06:34:03.347Z,99.99
2023-05-03T06:35:03.378Z,99.99
2023-05-03T06:36:03.312Z,99.99
2023-05-03T06:37:03.304Z,99.99
2023-05-03T06:38:03.288Z,99.99
2023-05-03T06:39:03.315Z,99.99
2023-05-03T06:40:03.480Z,99.99
2023-05-03T06:41:03.241Z,99.99
2023-05-03T06:42:03.308Z,99.99
2023-05-03T06:43:03.211Z,99.99
2023-05-03T06:44:03.351Z,99.99
2023-05-03T06:45:03.197Z,99.99
2023-05-03T06:46:03.224Z,99.99
2023-05-03T06:47:03.696Z,99.99
2023-05-03T06:48:03.248Z,99.99
2023-05-03T06:49:03.156Z,99.99
2023-05-03T06:50:03.302Z,99.99
2023-05-03T06:51:03.108Z,99.99
2023-05-03T06:52:03.095Z,99.99
2023-05-03T06:53:03.226Z,99.99
2023-05-03T06:54:03.072Z,99.99
2023-05-03T06:55:03.078Z,99.99
2023-05-03T06:56:03.340Z,99.99
2023-05-03T06:57:03.026Z,99.99
2023-05-03T06:58:03.039Z,99.99
2023-05-03T06:59:02.994Z,99.99
2023-05-03T07:00:03.158Z,99.99
2023-05-03T07:01:02.969Z,99.99
2023-05-03T07:02:02.994Z,99.99
2023-05-03T07:03:03.029Z,99.99
2023-05-03T07:04:03.048Z,99.99
2023-05-03T07:05:02.917Z,99.99
2023-05-03T07:06:02.946Z,99.99
2023-05-03T07:07:02.944Z,99.99
2023-05-03T07:08:02.876Z,99.99
2023-05-03T07:09:02.863Z,99.99
2023-05-03T07:10:03.151Z,99.99
2023-05-03T07:11:02.836Z,99.99
2023-05-03T07:12:02.823Z,99.99
2023-05-03T07:13:02.822Z,99.99
2023-05-03T07:14:02.822Z,99.99
2023-05-03T07:15:02.790Z,99.99
2023-05-03T07:16:03.675Z,99.99
2023-05-03T07:17:02.780Z,99.99
2023-05-03T07:18:02.805Z,99.99
2023-05-03T07:19:02.720Z,99.99
2023-05-03T07:20:02.914Z,99.99
2023-05-03T07:21:02.693Z,99.99
2023-05-03T07:22:02.693Z,99.99
2023-05-03T07:23:02.675Z,99.99
2023-05-03T07:24:02.673Z,99.99
2023-05-03T07:25:02.660Z,99.99
2023-05-03T07:26:02.636Z,99.99
2023-05-03T07:27:02.618Z,99.99
2023-05-03T07:28:02.616Z,99.99
2023-05-03T07:29:02.589Z,99.99
2023-05-03T07:30:02.947Z,99.99
2023-05-03T07:31:02.560Z,99.99
2023-05-03T07:32:02.554Z,99.99
2023-05-03T07:33:02.607Z,99.99
2023-05-03T07:34:02.545Z,99.99
2023-05-03T07:35:02.506Z,99.99
2023-05-03T07:36:02.498Z,99.99
2023-05-03T07:37:02.499Z,99.99
2023-05-03T07:38:02.474Z,99.99
2023-05-03T07:39:02.467Z,99.99
2023-05-03T07:40:02.667Z,99.99
2023-05-03T07:41:02.434Z,99.99
2023-05-03T07:42:02.425Z,99.99
2023-05-03T07:43:02.404Z,99.63
2023-05-03T07:44:02.424Z,99.02
2023-05-03T07:45:02.381Z,98.71
2023-05-03T07:46:02.822Z,98.15
2023-05-03T07:47:02.351Z,98.21
2023-05-03T07:48:02.350Z,98.68
2023-05-03T07:49:02.326Z,98.58
2023-05-03T07:50:02.535Z,96.23
2023-05-03T07:51:02.292Z,95.07
2023-05-03T07:52:02.290Z,94.72
2023-05-03T07:53:02.269Z,93.70
2023-05-03T07:54:02.254Z,94.92
2023-05-03T07:55:02.244Z,94.82
2023-05-03T07:56:02.229Z,95.17
2023-05-03T07:57:02.229Z,95.74
2023-05-03T07:58:02.204Z,95.53
2023-05-03T07:59:09.124Z,95.69
2023-05-03T08:00:03.418Z,94.02
2023-05-03T08:01:02.163Z,93.16
2023-05-03T08:02:02.294Z,93.79
2023-05-03T08:03:02.218Z,92.87
2023-05-03T08:04:02.370Z,91.16
2023-05-03T08:05:02.318Z,91.06
2023-05-03T08:06:02.139Z,89.33
2023-05-03T08:07:02.133Z,89.15
2023-05-03T08:08:02.072Z,87.69
2023-05-03T08:09:02.052Z,88.05
2023-05-03T08:10:02.282Z,83.09
2023-05-03T08:11:02.035Z,79.94
2023-05-03T08:12:02.019Z,82.14
2023-05-03T08:13:02.008Z,80.18
2023-05-03T08:14:02.007Z,81.92
2023-05-03T08:15:01.988Z,83.40
2023-05-03T08:16:02.004Z,79.92
2023-05-03T08:17:01.955Z,78.61
2023-05-03T08:18:02.002Z,76.59
2023-05-03T08:19:01.930Z,77.36
2023-05-03T08:20:02.389Z,80.15
2023-05-03T08:21:01.899Z,77.19
2023-05-03T08:22:01.900Z,78.86
2023-05-03T08:23:01.887Z,76.91
2023-05-03T08:24:01.861Z,75.80
2023-05-03T08:25:01.848Z,76.00
2023-05-03T08:26:01.838Z,79.63
2023-05-03T08:27:01.820Z,79.29
2023-05-03T08:28:01.810Z,75.53
2023-05-03T08:29:01.960Z,74.12
2023-05-03T08:30:02.033Z,73.68
2023-05-03T08:31:01.871Z,75.79
2023-05-03T08:32:01.757Z,70.86
2023-05-03T08:33:01.791Z,75.29
2023-05-03T08:34:01.876Z,73.11
2023-05-03T08:35:01.724Z,72.20
2023-05-03T08:36:01.880Z,71.50
2023-05-03T08:37:01.692Z,70.32
2023-05-03T08:38:01.686Z,72.20
2023-05-03T08:39:01.667Z,74.29
2023-05-03T08:40:01.829Z,75.99
2023-05-03T08:41:01.659Z,74.01
2023-05-03T08:42:01.630Z,67.04
2023-05-03T08:43:01.616Z,67.35
2023-05-03T08:44:01.599Z,75.42
2023-05-03T08:45:01.587Z,70.16
2023-05-03T08:46:01.585Z,67.95
2023-05-03T08:47:01.618Z,67.55
2023-05-03T08:48:02.045Z,66.82
2023-05-03T08:49:01.541Z,65.61
2023-05-03T08:50:01.858Z,64.71
2023-05-03T08:51:01.511Z,67.82
2023-05-03T08:52:01.522Z,66.01
2023-05-03T08:53:01.494Z,64.68
2023-05-03T08:54:01.467Z,64.28
2023-05-03T08:55:01.466Z,66.68
2023-05-03T08:56:01.464Z,68.32
2023-05-03T08:57:01.438Z,67.92
2023-05-03T08:58:01.442Z,68.62
2023-05-03T08:59:01.404Z,66.71
2023-05-03T09:00:01.577Z,68.29
2023-05-03T09:01:01.379Z,66.08
2023-05-03T09:02:01.393Z,64.25
2023-05-03T09:03:01.482Z,61.54
2023-05-03T09:04:01.423Z,64.01
2023-05-03T09:05:01.529Z,66.81
2023-05-03T09:06:01.403Z,68.62
2023-05-03T09:07:01.303Z,70.73
2023-05-03T09:08:01.296Z,67.35
2023-05-03T09:09:01.284Z,66.20
2023-05-03T09:10:01.267Z,71.53
2023-05-03T09:11:01.253Z,74.57
2023-05-03T09:12:01.238Z,70.89
2023-05-03T09:13:01.388Z,66.75
2023-05-03T09:14:01.219Z,65.42
2023-05-03T09:15:01.217Z,64.69
2023-05-03T09:16:01.242Z,65.39
2023-05-03T09:17:01.327Z,63.45
2023-05-03T09:18:01.177Z,65.36
2023-05-03T09:19:01.166Z,62.12
2023-05-03T09:20:01.506Z,60.45
2023-05-03T09:21:01.134Z,64.36
2023-05-03T09:22:01.341Z,63.06
2023-05-03T09:23:01.117Z,69.53
2023-05-03T09:24:01.336Z,62.85
2023-05-03T09:25:01.078Z,64.31
2023-05-03T09:26:01.086Z,60.14
2023-05-03T09:27:01.050Z,62.71
2023-05-03T09:28:01.043Z,59.98
2023-05-03T09:29:01.032Z,61.78
2023-05-03T09:30:01.199Z,62.52
2023-05-03T09:31:01.005Z,64.95
2023-05-03T09:32:01.198Z,62.84
2023-05-03T09:33:01.029Z,65.18
2023-05-03T09:34:00.980Z,62.00
2023-05-03T09:35:01.548Z,61.13
2023-05-03T09:36:00.939Z,64.71
2023-05-03T09:37:00.938Z,60.93
2023-05-03T09:38:00.988Z,67.68
2023-05-03T09:39:00.900Z,66.84
2023-05-03T09:40:01.019Z,66.27
2023-05-03T09:41:00.907Z,65.80
2023-05-03T09:42:00.874Z,63.71
2023-05-03T09:43:02.125Z,68.85
2023-05-03T09:44:00.850Z,72.07
2023-05-03T09:45:00.888Z,71.67
2023-05-03T09:46:00.842Z,69.52
2023-05-03T09:47:00.816Z,68.98
2023-05-03T09:48:00.824Z,70.79
2023-05-03T09:49:00.779Z,68.95
2023-05-03T09:50:00.776Z,67.38
2023-05-03T09:51:00.767Z,66.61
2023-05-03T09:52:00.731Z,66.24
2023-05-03T09:53:00.730Z,60.49
2023-05-03T09:54:00.761Z,65.65
2023-05-03T09:55:00.795Z,61.38
2023-05-03T09:56:00.685Z,64.18
2023-05-03T09:57:00.688Z,65.16
2023-05-03T09:58:00.661Z,59.69
2023-05-03T09:59:00.651Z,59.89
2023-05-03T10:00:00.634Z,63.03
2023-05-03T10:01:00.633Z,62.07
2023-05-03T10:02:00.609Z,57.33
2023-05-03T10:03:00.657Z,60.29
2023-05-03T10:04:00.648Z,54.94
2023-05-03T10:05:00.584Z,55.36
2023-05-03T10:06:00.557Z,54.06
2023-05-03T10:07:00.567Z,56.98
2023-05-03T10:08:00.536Z,55.79
2023-05-03T10:09:00.522Z,58.06
2023-05-03T10:10:00.578Z,55.51
2023-05-03T10:11:00.500Z,53.86
2023-05-03T10:12:00.481Z,55.57
2023-05-03T10:13:00.473Z,58.85
2023-05-03T10:14:00.459Z,59.52
2023-05-03T10:15:00.504Z,58.17
2023-05-03T10:16:00.595Z,58.84
2023-05-03T10:17:00.415Z,56.71
2023-05-03T10:18:00.428Z,53.39
2023-05-03T10:19:00.400Z,57.35
2023-05-03T10:20:00.393Z,58.83
2023-05-03T10:21:00.374Z,53.69
2023-05-03T10:22:00.362Z,52.89
2023-05-03T10:23:00.348Z,55.69
2023-05-03T10:24:00.340Z,57.46
2023-05-03T10:25:00.693Z,57.46
2023-05-03T10:26:00.342Z,54.02
2023-05-03T10:27:00.293Z,55.69
2023-05-03T10:28:00.278Z,55.40
2023-05-03T10:29:01.410Z,55.32
2023-05-03T10:30:00.280Z,55.99
2023-05-03T10:31:00.356Z,55.87
2023-05-03T10:32:00.230Z,56.84
2023-05-03T10:33:00.421Z,57.81
2023-05-03T10:34:00.235Z,54.29
2023-05-03T10:35:00.214Z,55.29
2023-05-03T10:36:00.397Z,53.27
2023-05-03T10:37:00.181Z,56.20
2023-05-03T10:38:00.160Z,55.59
2023-05-03T10:39:00.156Z,56.22
2023-05-03T10:40:00.165Z,55.57
2023-05-03T10:41:00.141Z,56.70
2023-05-03T10:42:00.124Z,56.17
2023-05-03T10:43:00.160Z,57.15
2023-05-03T10:44:00.106Z,54.39
2023-05-03T10:45:00.065Z,57.04
2023-05-03T10:46:00.150Z,53.64
2023-05-03T10:47:00.043Z,56.12
2023-05-03T10:48:00.175Z,55.87
2023-05-03T10:49:00.030Z,54.02
2023-05-03T10:50:00.041Z,57.30
2023-05-03T10:50:59.989Z,55.37
2023-05-03T10:51:59.977Z,56.82
2023-05-03T10:52:59.969Z,55.57
2023-05-03T10:53:59.961Z,55.99
2023-05-03T10:54:59.950Z,57.62
2023-05-03T10:55:59.931Z,56.32
2023-05-03T10:57:00.040Z,54.69
2023-05-03T10:57:59.933Z,53.49
2023-05-03T10:58:59.892Z,53.97
2023-05-03T10:59:59.881Z,52.55
2023-05-03T11:00:59.885Z,51.77
2023-05-03T11:02:00.045Z,53.67
2023-05-03T11:02:59.907Z,53.07
2023-05-03T11:03:59.877Z,54.37
2023-05-03T11:04:59.955Z,53.47
2023-05-03T11:05:59.808Z,52.00
2023-05-03T11:06:59.790Z,51.92
2023-05-03T11:07:59.779Z,55.82
2023-05-03T11:08:59.763Z,50.72
2023-05-03T11:09:59.749Z,52.59
2023-05-03T11:10:59.752Z,54.32
2023-05-03T11:11:59.729Z,55.43
2023-05-03T11:12:59.712Z,57.20
2023-05-03T11:13:59.806Z,55.00
2023-05-03T11:14:59.693Z,55.98
2023-05-03T11:15:59.745Z,53.64
2023-05-03T11:16:59.871Z,53.62
2023-05-03T11:17:59.668Z,54.39
2023-05-03T11:18:59.648Z,52.87
2023-05-03T11:19:59.631Z,51.97
2023-05-03T11:20:59.623Z,54.57
2023-05-03T11:21:59.611Z,53.77
2023-05-03T11:22:59.590Z,53.30
2023-05-03T11:23:59.579Z,52.44
2023-05-03T11:24:59.565Z,53.37
2023-05-03T11:25:59.551Z,55.05
2023-05-03T11:26:59.544Z,55.05
2023-05-03T11:28:00.552Z,55.22
2023-05-03T11:28:59.518Z,54.90
2023-05-03T11:29:59.582Z,54.77
2023-05-03T11:30:59.495Z,52.34
2023-05-03T11:31:59.561Z,51.34
2023-05-03T11:32:59.484Z,49.85
2023-05-03T11:33:59.450Z,51.12
2023-05-03T11:34:59.463Z,51.82
2023-05-03T11:35:59.429Z,51.17
2023-05-03T11:36:59.424Z,53.69
2023-05-03T11:37:59.402Z,51.94
2023-05-03T11:38:59.387Z,53.57
2023-05-03T11:39:59.372Z,52.77
2023-05-03T11:40:59.361Z,54.62
2023-05-03T11:41:59.348Z,56.63
2023-05-03T11:42:59.334Z,54.37
2023-05-03T11:44:14.503Z,54.52
2023-05-03T11:45:00.339Z,50.09
2023-05-03T11:45:59.462Z,50.70
2023-05-03T11:46:59.376Z,53.12
2023-05-03T11:47:59.323Z,50.94
2023-05-03T11:48:59.300Z,53.14
2023-05-03T11:49:59.305Z,53.12
2023-05-03T11:50:59.278Z,52.62
2023-05-03T11:51:59.244Z,51.89
2023-05-03T11:52:59.208Z,52.17
2023-05-03T11:54:01.259Z,52.17
2023-05-03T11:54:59.191Z,53.44
2023-05-03T11:55:59.171Z,50.45
2023-05-03T11:56:59.733Z,49.79
2023-05-03T11:57:59.150Z,50.39
2023-05-03T11:58:59.136Z,53.57
2023-05-03T11:59:59.129Z,53.52
2023-05-03T12:00:59.118Z,53.89
2023-05-03T12:01:59.126Z,50.40
2023-05-03T12:02:59.328Z,50.22
2023-05-03T12:03:59.460Z,51.64
2023-05-03T12:04:59.196Z,50.77
2023-05-03T12:05:59.374Z,52.37
2023-05-03T12:07:00.111Z,50.77
2023-05-03T12:07:59.783Z,52.44
2023-05-03T12:08:59.727Z,50.65
2023-05-03T12:10:13.772Z,51.15
2023-05-03T12:11:02.225Z,50.32
2023-05-03T12:12:01.484Z,50.72
2023-05-03T12:13:00.519Z,51.89
2023-05-03T12:13:59.128Z,52.04
2023-05-03T12:14:59.345Z,50.02
2023-05-03T12:16:10.839Z,47.98
2023-05-03T12:17:00.575Z,49.92
2023-05-03T12:18:00.257Z,49.07
2023-05-03T12:19:01.582Z,50.24
2023-05-03T12:20:31.938Z,49.52
2023-05-03T12:22:59.598Z,51.02
2023-05-03T12:24:01.324Z,52.80
2023-05-03T12:24:59.014Z,52.94
2023-05-03T12:26:00.963Z,50.22
2023-05-03T12:27:00.109Z,51.70
2023-05-03T12:28:18.017Z,50.17
2023-05-03T12:29:01.845Z,50.43
2023-05-03T12:30:00.744Z,49.10
2023-05-03T12:30:58.890Z,47.56
2023-05-03T12:31:58.792Z,49.15
2023-05-03T12:32:59.021Z,48.35
2023-05-03T12:35:02.050Z,50.57
2023-05-03T12:35:59.392Z,47.96
2023-05-03T12:36:59.262Z,49.15
2023-05-03T12:38:02.484Z,50.05
2023-05-03T12:39:01.863Z,48.80
2023-05-03T12:40:22.305Z,47.55
2023-05-03T12:40:59.986Z,51.87
2023-05-03T12:42:58.604Z,52.34
2023-05-03T12:44:00.489Z,49.72
2023-05-03T12:44:58.705Z,49.22
2023-05-03T12:46:25.200Z,49.29
2023-05-03T12:47:01.114Z,49.09
2023-05-03T12:47:58.614Z,49.87
2023-05-03T12:49:00.765Z,49.97
2023-05-03T12:50:00.046Z,49.15
2023-05-03T12:51:17.535Z,50.72
2023-05-03T12:52:23.230Z,49.85
2023-05-03T12:53:02.405Z,49.52
2023-05-03T12:54:01.769Z,49.92
2023-05-03T12:55:02.670Z,48.65
2023-05-03T12:55:58.677Z,48.94